createdAt,value
2019-05-03T00:01:39.458Z,10.83
2019-05-03T00:04:07.857Z,11.27
2019-05-03T00:06:36.256Z,12.00
2019-05-03T00:09:08.199Z,12.03
2019-05-03T00:11:36.660Z,12.40
2019-05-03T00:14:05.727Z,10.83
2019-05-03T00:16:36.207Z,10.70
2019-05-03T00:19:04.741Z,10.90
2019-05-03T00:21:34.731Z,12.07
2019-05-03T00:24:03.453Z,12.13
2019-05-03T00:26:31.924Z,11.17
2019-05-03T00:29:02.104Z,12.00
2019-05-03T00:31:31.905Z,12.23
2019-05-03T00:34:12.483Z,12.10
2019-05-03T00:36:42.654Z,13.10
2019-05-03T00:39:32.528Z,12.07
2019-05-03T00:42:02.698Z,12.13
2019-05-03T00:44:31.741Z,13.37
2019-05-03T00:47:01.786Z,12.77
2019-05-03T00:49:32.065Z,14.20
2019-05-03T00:52:02.321Z,13.50
2019-05-03T00:54:33.517Z,14.80
2019-05-03T00:57:02.704Z,12.27
2019-05-03T00:59:32.646Z,14.10
2019-05-03T01:02:02.691Z,11.77
2019-05-03T01:04:31.805Z,11.53
2019-05-03T01:07:02.119Z,11.83
2019-05-03T01:09:31.745Z,11.03
2019-05-03T01:12:01.952Z,10.47
2019-05-03T01:14:31.685Z,9.97
2019-05-03T01:17:02.474Z,9.47
2019-05-03T01:19:32.061Z,10.50
2019-05-03T01:22:01.963Z,9.80
2019-05-03T01:24:32.293Z,10.10
2019-05-03T01:27:01.983Z,10.03
2019-05-03T01:29:32.274Z,10.57
2019-05-03T01:32:02.299Z,9.23
2019-05-03T01:34:32.602Z,9.20
2019-05-03T01:37:02.621Z,9.67
2019-05-03T01:39:31.605Z,11.00
2019-05-03T01:42:02.504Z,10.53
2019-05-03T01:44:32.517Z,10.43
2019-05-03T01:47:02.549Z,12.67
2019-05-03T01:49:44.610Z,12.60
2019-05-03T01:52:15.238Z,12.00
2019-05-03T01:54:43.939Z,12.70
2019-05-03T01:57:12.362Z,10.87
2019-05-03T01:59:42.495Z,10.03
2019-05-03T02:02:14.305Z,9.20
2019-05-03T02:04:44.665Z,7.37
2019-05-03T02:07:13.056Z,8.33
2019-05-03T02:09:41.745Z,7.40
2019-05-03T02:12:10.255Z,9.20
2019-05-03T02:14:38.641Z,7.33
2019-05-03T02:17:07.102Z,7.40
2019-05-03T02:19:35.859Z,6.90
2019-05-03T02:22:04.544Z,7.70
2019-05-03T02:24:33.174Z,6.60
2019-05-03T02:27:02.159Z,6.57
2019-05-03T02:29:32.553Z,5.80
2019-05-03T02:32:03.343Z,4.80
2019-05-03T02:34:32.728Z,4.70
2019-05-03T02:37:02.941Z,5.43
2019-05-03T02:39:33.485Z,4.97
2019-05-03T02:42:10.998Z,5.77
2019-05-03T02:44:35.523Z,5.73
2019-05-03T02:47:15.899Z,6.13
2019-05-03T02:49:46.254Z,6.57
2019-05-03T02:52:35.824Z,5.93
2019-05-03T02:55:07.894Z,5.50
2019-05-03T02:57:36.285Z,5.93
2019-05-03T03:00:08.522Z,6.13
2019-05-03T03:02:38.142Z,4.87
2019-05-03T03:05:08.388Z,6.00
2019-05-03T03:07:38.012Z,5.73
2019-05-03T03:10:09.133Z,6.57
2019-05-03T03:12:40.451Z,7.30
2019-05-03T03:15:09.978Z,7.60
2019-05-03T03:17:41.283Z,7.97
2019-05-03T03:20:10.510Z,7.57
2019-05-03T03:22:42.163Z,7.90
2019-05-03T03:25:12.631Z,7.53
2019-05-03T03:27:45.316Z,7.40
2019-05-03T03:30:37.466Z,7.43
2019-05-03T03:33:08.743Z,8.47
2019-05-03T03:35:38.963Z,7.67
2019-05-03T03:38:08.295Z,8.53
2019-05-03T03:40:38.431Z,8.57
2019-05-03T03:43:09.186Z,8.50
2019-05-03T03:45:39.718Z,8.67
2019-05-03T03:48:10.139Z,9.70
2019-05-03T03:50:42.026Z,9.13
2019-05-03T03:53:11.894Z,9.23
2019-05-03T03:55:45.647Z,10.83
2019-05-03T03:58:17.711Z,10.30
2019-05-03T04:00:46.423Z,12.53
2019-05-03T04:03:15.786Z,12.17
2019-05-03T04:05:46.732Z,12.50
2019-05-03T04:08:16.167Z,13.80
2019-05-03T04:10:46.414Z,12.20
2019-05-03T04:13:16.264Z,12.60
2019-05-03T04:16:00.232Z,14.17
2019-05-03T04:18:30.467Z,14.00
2019-05-03T04:20:59.035Z,13.10
2019-05-03T04:23:30.135Z,14.50
2019-05-03T04:26:00.672Z,12.70
2019-05-03T04:28:29.358Z,13.53
2019-05-03T04:30:57.990Z,14.77
2019-05-03T04:33:27.152Z,14.03
2019-05-03T04:35:56.186Z,13.37
2019-05-03T04:38:25.552Z,12.90
2019-05-03T04:40:56.267Z,13.30
2019-05-03T04:43:26.384Z,14.40
2019-05-03T04:46:07.126Z,13.90
2019-05-03T04:48:35.887Z,13.93
2019-05-03T04:51:05.964Z,25.23
2019-05-03T04:53:36.321Z,24.37
2019-05-03T04:56:05.702Z,17.33
2019-05-03T04:58:36.478Z,14.60
2019-05-03T05:01:06.754Z,13.93
2019-05-03T05:03:36.207Z,16.17
2019-05-03T05:06:06.359Z,14.70
2019-05-03T05:08:36.202Z,14.40
2019-05-03T05:11:08.013Z,13.70
2019-05-03T05:13:35.790Z,15.57
2019-05-03T05:16:05.977Z,13.40
2019-05-03T05:18:36.446Z,13.10
2019-05-03T05:21:14.850Z,13.90
2019-05-03T05:23:59.795Z,13.77
2019-05-03T05:26:35.853Z,14.33
2019-05-03T05:29:08.938Z,13.67
2019-05-03T05:31:37.429Z,15.30
2019-05-03T05:34:08.551Z,13.33
2019-05-03T05:36:36.025Z,14.37
2019-05-03T05:39:06.417Z,13.20
2019-05-03T05:41:34.935Z,13.87
2019-05-03T05:44:05.403Z,13.40
2019-05-03T05:46:35.599Z,12.33
2019-05-03T05:49:06.385Z,13.30
2019-05-03T05:51:35.287Z,12.00
2019-05-03T05:54:05.209Z,13.03
2019-05-03T05:56:44.711Z,13.00
2019-05-03T05:59:14.961Z,14.37
2019-05-03T06:01:47.774Z,13.93
2019-05-03T06:04:16.212Z,14.13
2019-05-03T06:06:49.713Z,13.80
2019-05-03T06:09:27.513Z,12.73
2019-05-03T06:12:00.953Z,12.57
2019-05-03T06:14:35.535Z,13.83
2019-05-03T06:17:24.547Z,13.77
2019-05-03T06:19:55.060Z,12.63
2019-05-03T06:22:25.755Z,13.37
2019-05-03T06:24:56.199Z,12.87
2019-05-03T06:27:35.079Z,13.53
2019-05-03T06:30:06.580Z,13.57
2019-05-03T06:32:36.669Z,13.80
2019-05-03T06:35:07.129Z,13.83
2019-05-03T06:37:37.176Z,13.83
2019-05-03T06:40:07.522Z,12.77
2019-05-03T06:42:35.946Z,14.30
2019-05-03T06:45:10.446Z,13.97
2019-05-03T06:47:40.276Z,13.07
2019-05-03T06:50:08.575Z,13.20
2019-05-03T06:52:37.044Z,14.53
2019-05-03T06:55:10.648Z,13.43
2019-05-03T06:57:40.155Z,14.53
2019-05-03T07:00:24.784Z,14.00
2019-05-03T07:02:55.119Z,14.63
2019-05-03T07:05:27.994Z,14.27
2019-05-03T07:08:15.321Z,14.70
2019-05-03T07:10:46.460Z,12.80
2019-05-03T07:13:15.277Z,13.00
2019-05-03T07:15:45.460Z,12.93
2019-05-03T07:18:15.720Z,15.13
2019-05-03T07:20:49.246Z,13.63
2019-05-03T07:23:17.660Z,13.23
2019-05-03T07:25:46.477Z,13.90
2019-05-03T07:28:15.834Z,12.43
2019-05-03T07:30:45.400Z,13.40
2019-05-03T07:33:18.431Z,12.23
2019-05-03T07:35:47.122Z,10.87
2019-05-03T07:38:15.916Z,10.40
2019-05-03T07:40:44.681Z,10.70
2019-05-03T07:43:14.876Z,9.40
2019-05-03T07:45:44.655Z,8.37
2019-05-03T07:48:14.991Z,10.40
2019-05-03T07:50:44.728Z,7.90
2019-05-03T07:53:15.068Z,6.90
2019-05-03T07:55:50.770Z,7.17
2019-05-03T07:58:25.265Z,6.90
2019-05-03T08:01:05.467Z,7.63
2019-05-03T08:03:25.647Z,6.83
2019-05-03T08:05:55.326Z,6.60
2019-05-03T08:08:25.042Z,5.50
2019-05-03T08:10:54.971Z,5.60
2019-05-03T08:13:25.346Z,6.00
2019-05-03T08:15:55.822Z,7.20
2019-05-03T08:18:25.732Z,5.50
2019-05-03T08:20:55.635Z,5.30
2019-05-03T08:23:29.295Z,4.90
2019-05-03T08:25:55.645Z,5.20
2019-05-03T08:28:24.808Z,5.20
2019-05-03T08:31:11.414Z,4.73
2019-05-03T08:33:48.498Z,5.20
2019-05-03T08:36:17.290Z,5.87
2019-05-03T08:38:45.798Z,4.67
2019-05-03T08:41:19.075Z,4.70
2019-05-03T08:43:49.102Z,4.50
2019-05-03T08:46:17.526Z,5.10
2019-05-03T08:48:46.269Z,4.87
2019-05-03T08:51:14.947Z,5.00
2019-05-03T08:53:45.668Z,5.60
2019-05-03T08:56:15.505Z,5.53
2019-05-03T08:58:45.102Z,6.00
2019-05-03T09:01:14.779Z,5.30
2019-05-03T09:03:45.586Z,5.10
2019-05-03T09:06:15.427Z,5.30
2019-05-03T09:08:45.857Z,6.13
2019-05-03T09:11:16.408Z,5.27
2019-05-03T09:14:01.954Z,5.10
2019-05-03T09:16:31.009Z,4.70
2019-05-03T09:18:59.822Z,4.53
2019-05-03T09:21:28.608Z,4.67
2019-05-03T09:23:57.385Z,4.00
2019-05-03T09:26:29.168Z,4.90
2019-05-03T09:28:55.978Z,5.00
2019-05-03T09:31:24.961Z,4.53
2019-05-03T09:33:54.848Z,4.10
2019-05-03T09:36:25.332Z,4.80
2019-05-03T09:38:54.978Z,5.57
2019-05-03T09:41:25.646Z,4.63
2019-05-03T09:43:55.510Z,4.50
2019-05-03T09:46:26.480Z,4.23
2019-05-03T09:49:09.472Z,4.27
2019-05-03T09:51:25.914Z,3.70
2019-05-03T09:53:59.193Z,3.90
2019-05-03T09:56:55.220Z,4.50
2019-05-03T09:59:16.026Z,3.43
2019-05-03T10:01:45.649Z,3.43
2019-05-03T10:04:14.268Z,4.20
2019-05-03T10:06:45.128Z,2.90
2019-05-03T10:09:15.248Z,2.80
2019-05-03T10:11:45.594Z,2.90
2019-05-03T10:14:15.568Z,3.43
2019-05-03T10:16:54.613Z,3.00
2019-05-03T10:19:34.786Z,3.03
2019-05-03T10:21:54.378Z,3.17
2019-05-03T10:24:25.324Z,3.57
2019-05-03T10:26:55.200Z,3.50
2019-05-03T10:29:25.115Z,3.40
2019-05-03T10:31:58.998Z,3.10
2019-05-03T10:34:28.091Z,3.23
2019-05-03T10:36:56.559Z,2.67
2019-05-03T10:39:26.292Z,3.33
2019-05-03T10:41:55.144Z,3.10
2019-05-03T10:44:24.617Z,3.40
2019-05-03T10:46:53.138Z,2.27
2019-05-03T10:49:21.837Z,2.70
2019-05-03T10:52:01.294Z,3.33
2019-05-03T10:54:29.712Z,2.87
2019-05-03T10:57:05.128Z,2.83
2019-05-03T10:59:32.912Z,3.50
2019-05-03T11:02:02.973Z,3.90
2019-05-03T11:04:31.454Z,2.70
2019-05-03T11:07:00.170Z,3.00
2019-05-03T11:09:28.852Z,2.50
2019-05-03T11:11:58.887Z,2.77
2019-05-03T11:14:28.227Z,2.70
2019-05-03T11:16:56.812Z,3.13
2019-05-03T11:19:25.480Z,4.90
2019-05-03T11:21:55.269Z,3.57
2019-05-03T11:24:27.193Z,4.03
2019-05-03T11:26:56.178Z,4.23
2019-05-03T11:29:24.790Z,3.33
2019-05-03T11:31:57.868Z,3.40
2019-05-03T11:34:44.913Z,3.17
2019-05-03T11:37:21.919Z,3.50
2019-05-03T11:39:51.438Z,3.50
2019-05-03T11:42:20.219Z,3.77
2019-05-03T11:44:48.701Z,4.07
2019-05-03T11:47:17.144Z,4.43
2019-05-03T11:49:45.648Z,3.93
2019-05-03T11:52:15.862Z,4.17
2019-05-03T11:54:45.321Z,4.13
2019-05-03T11:57:27.536Z,4.00
2019-05-03T11:59:56.353Z,4.10
2019-05-03T12:02:29.402Z,3.43
2019-05-03T12:04:59.546Z,3.63
2019-05-03T12:07:39.315Z,4.40
2019-05-03T12:10:16.541Z,3.70
2019-05-03T12:12:55.304Z,3.90
2019-05-03T12:15:23.901Z,3.67
2019-05-03T12:17:59.239Z,3.43
2019-05-03T12:20:28.876Z,3.57
2019-05-03T12:22:57.758Z,4.13
2019-05-03T12:25:27.178Z,3.50
2019-05-03T12:27:56.532Z,4.30
2019-05-03T12:30:27.672Z,3.83
2019-05-03T12:32:55.345Z,2.97
2019-05-03T12:35:24.667Z,3.40
2019-05-03T12:37:55.091Z,3.60
2019-05-03T12:40:25.429Z,4.73
2019-05-03T12:42:55.288Z,3.63
2019-05-03T12:45:24.894Z,3.50
2019-05-03T12:47:55.733Z,3.60
2019-05-03T12:50:25.152Z,3.07
2019-05-03T12:52:55.500Z,3.87
2019-05-03T12:55:24.859Z,3.80
2019-05-03T12:57:55.311Z,3.20
2019-05-03T13:00:37.700Z,2.60
2019-05-03T13:03:08.052Z,3.33
2019-05-03T13:05:37.023Z,3.50
2019-05-03T13:08:35.243Z,3.10
2019-05-03T13:11:05.328Z,3.60
2019-05-03T13:13:35.878Z,3.10
2019-05-03T13:16:05.454Z,3.10
2019-05-03T13:18:35.178Z,2.73
2019-05-03T13:21:05.738Z,3.60
2019-05-03T13:23:35.663Z,3.20
2019-05-03T13:26:05.919Z,3.40
2019-05-03T13:28:34.764Z,3.30
2019-05-03T13:31:05.477Z,3.33
2019-05-03T13:33:34.819Z,3.50
2019-05-03T13:36:04.156Z,3.57
2019-05-03T13:38:34.724Z,2.87
2019-05-03T13:41:02.972Z,3.37
2019-05-03T13:43:31.813Z,2.60
2019-05-03T13:46:00.360Z,3.27
2019-05-03T13:48:41.674Z,4.00
2019-05-03T13:50:59.187Z,3.43
2019-05-03T13:53:28.023Z,2.70
2019-05-03T13:55:56.410Z,3.30
2019-05-03T13:58:26.435Z,2.90
2019-05-03T14:00:55.236Z,3.70
2019-05-03T14:03:23.996Z,3.03
2019-05-03T14:05:52.683Z,3.40
2019-05-03T14:08:21.117Z,2.77
2019-05-03T14:10:49.537Z,3.27
2019-05-03T14:13:17.952Z,2.70
2019-05-03T14:15:46.804Z,3.30
2019-05-03T14:18:15.571Z,2.83
2019-05-03T14:21:05.029Z,2.80
2019-05-03T14:23:34.722Z,2.60
2019-05-03T14:26:03.538Z,2.40
2019-05-03T14:28:34.528Z,3.53
2019-05-03T14:31:05.133Z,3.67
2019-05-03T14:33:35.319Z,3.20
2019-05-03T14:36:05.349Z,2.57
2019-05-03T14:38:34.512Z,3.07
2019-05-03T14:41:05.372Z,3.40
2019-05-03T14:43:35.551Z,2.73
2019-05-03T14:46:05.557Z,2.53
2019-05-03T14:48:35.120Z,2.80
2019-05-03T14:51:05.467Z,3.53
2019-05-03T14:53:34.803Z,3.10
2019-05-03T14:56:07.777Z,2.70
2019-05-03T14:58:49.257Z,2.47
2019-05-03T15:01:21.744Z,2.40
2019-05-03T15:03:50.174Z,2.17
2019-05-03T15:06:18.593Z,2.43
2019-05-03T15:08:47.929Z,2.50
2019-05-03T15:11:16.632Z,2.60
2019-05-03T15:13:45.606Z,2.70
2019-05-03T15:16:14.461Z,2.97
2019-05-03T15:18:42.993Z,2.57
2019-05-03T15:21:11.739Z,2.50
2019-05-03T15:23:40.162Z,2.70
2019-05-03T15:26:08.874Z,2.63
2019-05-03T15:28:37.427Z,3.20
2019-05-03T15:31:06.311Z,3.20
2019-05-03T15:33:35.333Z,2.57
2019-05-03T15:36:04.794Z,2.13
2019-05-03T15:38:34.650Z,2.93
2019-05-03T15:41:05.415Z,3.20
2019-05-03T15:43:35.293Z,2.47
2019-05-03T15:46:08.117Z,2.10
2019-05-03T15:48:38.160Z,2.63
2019-05-03T15:51:06.604Z,2.40
2019-05-03T15:53:35.434Z,2.73
2019-05-03T15:56:05.399Z,2.53
2019-05-03T15:58:34.165Z,2.50
2019-05-03T16:01:04.522Z,2.30
2019-05-03T16:03:33.010Z,3.17
2019-05-03T16:06:01.491Z,2.80
2019-05-03T16:08:29.914Z,2.47
2019-05-03T16:10:58.340Z,2.77
2019-05-03T16:13:27.094Z,2.33
2019-05-03T16:15:55.519Z,2.60
2019-05-03T16:18:24.563Z,2.90
2019-05-03T16:20:54.665Z,2.63
2019-05-03T16:23:25.011Z,2.87
2019-05-03T16:25:54.383Z,2.40
2019-05-03T16:28:44.692Z,2.50
2019-05-03T16:31:15.070Z,2.87
2019-05-03T16:33:45.696Z,2.80
2019-05-03T16:36:14.884Z,2.90
2019-05-03T16:38:44.973Z,3.00
2019-05-03T16:41:17.446Z,3.37
2019-05-03T16:43:45.552Z,2.93
2019-05-03T16:46:15.090Z,3.13
2019-05-03T16:48:44.787Z,2.60
2019-05-03T16:51:15.016Z,2.57
2019-05-03T16:53:44.549Z,2.70
2019-05-03T16:56:16.560Z,2.80
2019-05-03T16:58:44.631Z,3.33
2019-05-03T17:01:17.837Z,2.80
2019-05-03T17:03:46.776Z,2.73
2019-05-03T17:06:22.729Z,3.00
2019-05-03T17:09:02.029Z,2.70
2019-05-03T17:11:30.488Z,2.57
2019-05-03T17:13:58.894Z,2.43
2019-05-03T17:16:27.922Z,3.20
2019-05-03T17:18:56.795Z,2.50
2019-05-03T17:21:25.589Z,2.90
2019-05-03T17:23:54.497Z,2.83
2019-05-03T17:26:24.887Z,3.00
2019-05-03T17:28:55.233Z,3.07
2019-05-03T17:31:24.355Z,3.00
2019-05-03T17:33:56.504Z,2.20
2019-05-03T17:36:25.063Z,3.40
2019-05-03T17:38:55.636Z,2.90
2019-05-03T17:41:35.015Z,3.40
2019-05-03T17:44:05.064Z,3.13
2019-05-03T17:46:34.786Z,3.60
2019-05-03T17:49:05.232Z,2.90
2019-05-03T17:51:39.550Z,3.30
2019-05-03T17:54:28.283Z,3.30
2019-05-03T17:57:07.085Z,3.77
2019-05-03T17:59:37.234Z,2.70
2019-05-03T18:02:22.431Z,2.60
2019-05-03T18:05:10.498Z,2.90
2019-05-03T18:07:57.338Z,3.83
2019-05-03T18:10:27.650Z,2.70
2019-05-03T18:12:56.257Z,3.47
2019-05-03T18:15:25.165Z,3.13
2019-05-03T18:17:54.928Z,2.60
2019-05-03T18:20:25.549Z,2.80
2019-05-03T18:22:54.813Z,2.90
2019-05-03T18:25:24.811Z,3.00
2019-05-03T18:27:55.051Z,2.80
2019-05-03T18:30:23.607Z,2.80
2019-05-03T18:32:52.052Z,2.60
2019-05-03T18:35:20.492Z,2.37
2019-05-03T18:37:51.032Z,3.07
2019-05-03T18:40:19.496Z,4.10
2019-05-03T18:42:49.619Z,3.30
2019-05-03T18:45:19.752Z,2.97
2019-05-03T18:47:48.772Z,3.10
2019-05-03T18:50:18.116Z,2.97
2019-05-03T18:52:46.552Z,2.50
2019-05-03T18:55:15.069Z,4.30
2019-05-03T18:57:44.738Z,2.83
2019-05-03T19:00:15.359Z,3.23
2019-05-03T19:02:44.541Z,2.87
2019-05-03T19:05:13.092Z,2.93
2019-05-03T19:07:50.176Z,3.20
2019-05-03T19:10:20.322Z,3.00
2019-05-03T19:12:55.080Z,3.30
2019-05-03T19:15:25.170Z,2.53
2019-05-03T19:17:58.332Z,2.70
2019-05-03T19:20:26.760Z,2.93
2019-05-03T19:22:56.256Z,3.03
2019-05-03T19:25:25.622Z,2.70
2019-05-03T19:27:54.573Z,2.90
2019-05-03T19:30:24.464Z,3.40
2019-05-03T19:32:55.180Z,3.20
2019-05-03T19:35:24.969Z,3.93
2019-05-03T19:37:55.429Z,3.17
2019-05-03T19:40:25.614Z,3.87
2019-05-03T19:42:55.200Z,4.10
2019-05-03T19:45:24.815Z,3.60
2019-05-03T19:47:55.221Z,3.73
2019-05-03T19:50:24.835Z,4.17
2019-05-03T19:52:57.779Z,3.63
2019-05-03T19:55:26.195Z,4.03
2019-05-03T19:57:54.919Z,3.50
2019-05-03T20:00:25.679Z,3.33
2019-05-03T20:02:55.912Z,3.60
2019-05-03T20:05:25.953Z,3.27
2019-05-03T20:08:07.823Z,3.00
2019-05-03T20:10:36.247Z,3.60
2019-05-03T20:13:05.032Z,3.53
2019-05-03T20:15:33.613Z,3.07
2019-05-03T20:18:02.048Z,4.83
2019-05-03T20:20:30.797Z,4.83
2019-05-03T20:22:59.320Z,4.80
2019-05-03T20:25:27.765Z,6.27
2019-05-03T20:27:56.546Z,4.20
2019-05-03T20:30:25.538Z,5.87
2019-05-03T20:32:55.555Z,4.80
2019-05-03T20:35:25.225Z,5.43
2019-05-03T20:37:55.337Z,4.40
2019-05-03T20:40:25.600Z,5.40
2019-05-03T20:42:55.834Z,5.80
2019-05-03T20:45:44.690Z,6.30
2019-05-03T20:48:15.023Z,5.50
2019-05-03T20:50:44.721Z,5.20
2019-05-03T20:53:13.332Z,6.70
2019-05-03T20:55:42.121Z,6.60
2019-05-03T20:58:11.458Z,6.40
2019-05-03T21:00:40.754Z,6.20
2019-05-03T21:03:09.182Z,6.13
2019-05-03T21:05:37.911Z,5.73
2019-05-03T21:08:06.375Z,5.00
2019-05-03T21:10:35.060Z,5.70
2019-05-03T21:13:05.266Z,6.93
2019-05-03T21:15:50.597Z,6.10
2019-05-03T21:18:37.196Z,6.70
2019-05-03T21:21:13.068Z,7.97
2019-05-03T21:23:46.410Z,6.87
2019-05-03T21:26:16.612Z,6.57
2019-05-03T21:28:45.334Z,6.00
2019-05-03T21:31:15.621Z,5.63
2019-05-03T21:33:44.564Z,6.40
2019-05-03T21:36:15.085Z,5.83
2019-05-03T21:38:44.415Z,6.77
2019-05-03T21:41:13.095Z,6.70
2019-05-03T21:43:41.548Z,6.23
2019-05-03T21:46:25.583Z,5.47
2019-05-03T21:49:01.288Z,7.10
2019-05-03T21:51:30.963Z,5.90
2019-05-03T21:53:59.394Z,6.70
2019-05-03T21:56:28.175Z,6.10
2019-05-03T21:58:56.599Z,7.57
2019-05-03T22:01:25.930Z,7.37
2019-05-03T22:03:54.681Z,6.97
2019-05-03T22:06:24.695Z,6.50
2019-05-03T22:08:55.307Z,7.23
2019-05-03T22:11:25.136Z,6.70
2019-05-03T22:13:57.076Z,8.37
2019-05-03T22:16:34.549Z,8.47
2019-05-03T22:19:03.079Z,7.00
2019-05-03T22:21:34.701Z,7.00
2019-05-03T22:24:08.289Z,7.10
2019-05-03T22:26:50.778Z,7.60
2019-05-03T22:29:19.553Z,8.73
2019-05-03T22:31:48.048Z,8.53
2019-05-03T22:34:16.465Z,7.10
2019-05-03T22:36:45.509Z,9.30
2019-05-03T22:39:15.666Z,7.90
2019-05-03T22:41:44.089Z,7.90
2019-05-03T22:44:16.748Z,7.57
2019-05-03T22:46:44.618Z,7.20
2019-05-03T22:49:15.474Z,7.33
2019-05-03T22:51:45.139Z,8.10
2019-05-03T22:54:15.390Z,8.23
2019-05-03T22:56:44.817Z,7.50
2019-05-03T22:59:14.701Z,7.30
2019-05-03T23:01:45.490Z,8.03
2019-05-03T23:04:14.616Z,7.70
2019-05-03T23:06:46.650Z,7.87
2019-05-03T23:09:15.631Z,8.37
2019-05-03T23:11:44.905Z,7.97
2019-05-03T23:14:15.342Z,6.60
2019-05-03T23:16:44.923Z,7.20
2019-05-03T23:19:15.017Z,7.70
2019-05-03T23:21:51.473Z,7.63
2019-05-03T23:24:19.907Z,7.47
2019-05-03T23:26:48.324Z,7.40
2019-05-03T23:29:17.818Z,8.27
2019-05-03T23:31:46.245Z,9.30
2019-05-03T23:34:14.731Z,7.70
2019-05-03T23:36:43.200Z,8.90
2019-05-03T23:39:12.079Z,8.23
2019-05-03T23:41:40.510Z,7.70
2019-05-03T23:44:09.283Z,9.87
2019-05-03T23:46:58.135Z,8.53
2019-05-03T23:49:28.349Z,9.53
2019-05-03T23:51:58.818Z,8.17
2019-05-03T23:54:28.062Z,8.80
2019-05-03T23:56:56.619Z,9.37
2019-05-03T23:59:25.051Z,9.20
